Latest Weather Observations for Cummins Airport

IDS60801

Issued at 8:01 am CDT Tuesday 17 January 2017 (issued every 30 minutes, with the page automatically refreshed every 10 minutes)

About weather observations | Map of weather stations | Latest weather observations for SA | Other Formats
Station Details ID: 018217 Name: CUMMINS AERO Lat: -34.25 Lon: 135.71 Height: 60.11 m
Data from the previous 72 hours. | See also: Recent months at Cummins Airport
Date/Time
CDT
Temp
°C
App
Temp
°C
Dew
Point
°C
Rel
Hum
%
Delta-T
°C
Wind Press
QNH
hPa
Press
MSL
hPa
Rain since
9am
mm
Dir  Spd
km/h
Gust
km/h
Spd
kts
Gust
kts
17/08:00am 27.8 24.8 7.6 28 10.9 NNE 13 17 7 9 1006.6 1006.4 0.0
17/07:30am 25.0 22.0 7.6 33 9.2 NE 13 20 7 11 1006.4 1006.2 0.0
17/07:00am 23.2 19.4 7.7 37 8.1 NE 17 20 9 11 1006.3 1006.1 0.0
17/06:30am 21.6 19.0 9.2 45 6.7 NNE 13 15 7 8 1006.1 1005.9 0.0
17/06:00am 21.3 19.4 8.9 45 6.6 NNE 9 13 5 7 1005.9 1005.7 0.0
17/05:30am 22.6 19.9 9.0 42 7.3 NE 13 19 7 10 1005.9 1005.7 0.0
17/05:00am 21.6 19.7 9.2 45 6.6 NE 9 13 5 7 1005.8 1005.6 0.0
17/04:30am 21.8 19.5 9.0 44 6.9 NE 11 17 6 9 1005.8 1005.6 0.0
17/04:00am 21.2 19.2 8.5 44 6.7 NNE 9 11 5 6 1006.1 1005.9 0.0
17/03:30am 23.0 20.7 7.5 37 8.1 NE 9 11 5 6 1006.5 1006.3 0.0
17/03:00am 25.4 22.4 7.5 32 9.5 ENE 13 20 7 11 1006.7 1006.5 0.0
17/02:30am 25.6 21.5 7.7 32 9.6 ENE 19 26 10 14 1006.9 1006.7 0.0
17/02:00am 25.0 22.4 7.6 33 9.2 ENE 11 13 6 7 1007.5 1007.3 0.0
17/01:30am 25.3 22.4 8.3 34 9.2 E 13 19 7 10 1007.8 1007.6 0.0
17/01:00am 25.2 22.3 8.2 34 9.1 E 13 19 7 10 1008.0 1007.8 0.0
17/12:30am 24.8 22.6 7.9 34 9.0 E 9 17 5 9 1008.4 1008.2 0.0
17/12:00am 24.5 21.6 8.0 35 8.8 ESE 13 17 7 9 1008.6 1008.4 0.0
 
Date/Time
CDT
Temp
°C
App
Temp
°C
Dew
Point
°C
Rel
Hum
%
Delta-T
°C
Wind Press
QNH
hPa
Press
MSL
hPa
Rain since
9am
mm
Dir  Spd
km/h
Gust
km/h
Spd
kts
Gust
kts
16/11:30pm 24.2 21.4 8.6 37 8.4 ESE 13 17 7 9 1008.7 1008.5 0.0
16/11:00pm 25.1 21.7 9.0 36 8.7 ESE 17 20 9 11 1008.9 1008.7 0.0
16/10:30pm 25.0 23.0 10.1 39 8.3 ESE 11 17 6 9 1008.9 1008.7 0.0
16/10:00pm 25.2 23.1 9.9 38 8.5 ESE 11 15 6 8 1008.8 1008.6 0.0
16/09:30pm 26.3 24.6 10.0 36 9.1 E 9 15 5 8 1008.8 1008.6 0.0
16/09:00pm 27.5 25.1 10.2 34 9.7 E 13 17 7 9 1008.8 1008.6 0.0
16/08:30pm 29.7 26.7 10.8 31 10.9 E 17 24 9 13 1008.5 1008.3 0.0
16/08:00pm 32.7 30.4 8.9 23 13.4 S 11 15 6 8 1008.3 1008.1 0.0
16/07:30pm 33.3 29.5 5.8 18 14.8 S 15 20 8 11 1008.3 1008.1 0.0
16/07:00pm 34.0 30.3 6.3 18 15.1 SW 15 20 8 11 1008.1 1007.9 0.0
16/06:30pm 34.2 29.2 4.8 16 15.7 SW 20 28 11 15 1007.9 1007.7 0.0
16/06:00pm 34.8 29.9 5.3 16 15.9 WSW 20 28 11 15 1008.0 1007.8 0.0
16/05:30pm 34.8 28.8 3.4 14 16.4 WSW 24 33 13 18 1008.1 1007.9 0.0
16/05:00pm 35.1 29.1 3.6 14 16.5 WSW 24 32 13 17 1008.4 1008.2 0.0
16/04:30pm 35.2 28.9 3.7 14 16.6 W 26 33 14 18 1008.4 1008.2 0.0
16/04:00pm 35.0 29.6 4.5 15 16.2 W 22 35 12 19 1008.6 1008.4 0.0
16/03:30pm 35.3 30.0 6.6 17 15.8 W 24 37 13 20 1008.7 1008.5 0.0
16/03:00pm 35.5 29.4 6.7 17 15.9 W 28 43 15 23 1009.0 1008.8 0.0
16/02:30pm 35.5 29.4 6.7 17 15.9 W 28 41 15 22 1009.1 1008.9 0.0
16/02:00pm 35.8 31.3 6.1 16 16.3 WNW 19 32 10 17 1009.4 1009.2 0.0
16/01:30pm 35.7 30.8 6.9 17 16.0 NW 22 33 12 18 1009.8 1009.6 0.0
16/01:00pm 35.2 31.0 7.3 18 15.5 NW 19 32 10 17 1009.9 1009.7 0.0
16/12:30pm 34.2 29.0 7.3 19 14.9 NNW 24 41 13 22 1010.3 1010.1 0.0
16/12:00pm 34.1 28.5 7.2 19 14.9 NNW 26 37 14 20 1010.5 1010.3 0.0
16/11:30am 32.3 27.2 9.2 24 13.1 NNW 26 33 14 18 1010.8 1010.6 0.0
16/11:00am 31.3 27.6 10.1 27 12.1 NNW 20 32 11 17 1011.4 1011.1 0.0
16/10:30am 30.3 26.3 11.8 32 10.8 N 24 32 13 17 1011.8 1011.5 0.0
16/10:00am 28.3 24.0 10.9 34 9.9 N 24 33 13 18 1012.1 1011.8 0.0
16/09:30am 26.4 22.6 12.5 42 8.1 N 24 32 13 17 1012.5 1012.2 0.0
16/09:00am 25.5 23.2 14.0 49 6.8 NNE 19 26 10 14 1012.5 1012.2 0.0
16/08:30am 22.6 20.9 15.7 65 4.2 NE 19 24 10 13 1012.3 1012.0 0.0
16/08:00am 20.7 20.5 16.7 78 2.4 NE 13 17 7 9 1012.3 1012.0 0.0
16/07:30am 16.7 18.5 15.6 93 0.6 CALM 0 0 0 0 1012.2 1011.9 0.0
16/07:00am 16.1 17.5 14.5 90 0.9 CALM 0 0 0 0 1012.2 1011.9 0.0
16/06:30am 15.5 16.2 13.3 87 1.2 NNE 2 9 1 5 1012.2 1011.9 0.0
16/06:00am 17.4 18.5 14.7 84 1.6 N 2 7 1 4 1012.0 1011.7 0.0
16/05:30am 17.2 18.3 14.7 85 1.4 E 2 11 1 6 1011.8 1011.5 0.0
16/05:00am 17.1 17.9 14.9 87 1.3 SW 4 11 2 6 1011.9 1011.6 0.0
16/04:30am 16.8 18.0 14.8 88 1.2 W 2 11 1 6 1011.9 1011.6 0.0
16/04:00am 17.4 17.5 15.6 89 1.1 E 9 17 5 9 1011.8 1011.5 0.0
16/03:30am 17.2 17.8 15.9 92 0.8 SE 7 15 4 8 1012.0 1011.7 0.0
16/03:00am 17.5 15.9 16.0 91 0.9 E 19 32 10 17 1012.1 1011.8 0.0
16/02:30am 17.1 16.8 15.4 90 1.0 ESE 11 17 6 9 1012.4 1012.1 0.0
16/02:00am 17.5 16.6 15.8 90 1.0 E 15 19 8 10 1012.8 1012.6 0.0
16/01:30am 17.7 17.5 15.7 88 1.2 ESE 11 15 6 8 1013.0 1012.8 0.0
16/01:00am 16.5 15.4 15.2 92 0.8 ESE 15 19 8 10 1013.3 1013.1 0.0
16/12:30am 16.9 15.4 15.2 90 1.0 SE 17 20 9 11 1013.6 1013.4 0.0
16/12:00am 16.7 14.8 15.2 91 0.9 SE 19 24 10 13 1013.9 1013.7 0.0
 
Date/Time
CDT
Temp
°C
App
Temp
°C
Dew
Point
°C
Rel
Hum
%
Delta-T
°C
Wind Press
QNH
hPa
Press
MSL
hPa
Rain since
9am
mm
Dir  Spd
km/h
Gust
km/h
Spd
kts
Gust
kts
15/11:30pm 16.8 15.7 15.2 90 0.9 SE 15 19 8 10 1014.4 1014.2 0.0
15/11:00pm 17.1 16.1 14.7 86 1.4 SSE 13 17 7 9 1014.6 1014.4 0.0
15/10:30pm 17.3 16.0 14.8 85 1.4 SSE 15 24 8 13 1014.5 1014.3 0.0
15/10:00pm 17.5 16.4 14.4 82 1.8 SSE 13 19 7 10 1014.5 1014.3 0.0
15/09:30pm 17.9 16.0 14.2 79 2.1 SE 17 24 9 13 1014.7 1014.5 0.0
15/09:00pm 19.0 16.5 13.6 71 3.1 SE 19 24 10 13 1014.7 1014.5 0.0
15/08:30pm 20.7 18.3 12.7 60 4.5 SE 17 20 9 11 1014.8 1014.6 0.0
15/08:00pm 22.4 19.1 11.5 50 6.1 E 20 26 11 14 1014.8 1014.6 0.0
15/07:30pm 23.3 20.1 12.0 49 6.4 ESE 20 26 11 14 1014.7 1014.5 0.0
15/07:00pm 24.5 21.4 11.5 44 7.4 ESE 19 26 10 14 1014.8 1014.6 0.0
15/06:30pm 24.8 21.3 11.0 42 7.7 E 20 30 11 16 1014.9 1014.7 0.0
15/06:00pm 25.3 21.6 10.0 38 8.5 ESE 20 26 11 14 1015.1 1014.9 0.0
15/05:30pm 25.4 22.2 10.1 38 8.5 ESE 17 24 9 13 1015.4 1015.2 0.0
15/05:00pm 25.8 22.4 10.4 38 8.6 ESE 19 26 10 14 1015.6 1015.4 0.0
15/04:30pm 25.7 22.5 11.1 40 8.2 ESE 19 28 10 15 1015.9 1015.7 0.0
15/04:00pm 26.2 22.8 11.2 39 8.5 SE 20 28 11 15 1015.9 1015.7 0.0
15/03:30pm 26.9 23.9 11.8 39 8.7 ESE 19 28 10 15 1016.2 1016.0 0.0
15/03:00pm 26.1 22.9 11.1 39 8.5 SE 19 30 10 16 1016.5 1016.3 0.0
15/02:30pm 25.7 23.6 11.1 40 8.2 ESE 13 28 7 15 1017.0 1016.8 0.0
15/02:00pm 25.4 22.2 11.2 41 8.0 SE 19 26 10 14 1017.4 1017.2 0.0
15/01:30pm 25.2 22.4 11.4 42 7.8 ESE 17 26 9 14 1017.6 1017.4 0.0
15/01:00pm 25.3 23.3 11.5 42 7.8 SE 13 20 7 11 1017.9 1017.7 0.0
15/12:30pm 24.7 22.2 10.9 42 7.7 ESE 15 26 8 14 1018.0 1017.8 0.0
15/12:00pm 23.4 20.7 10.5 44 7.1 ESE 15 24 8 13 1018.3 1018.1 0.0
15/11:30am 23.0 20.5 11.1 47 6.6 ESE 15 24 8 13 1018.7 1018.5 0.0
15/11:00am 22.4 19.9 11.2 49 6.2 ESE 15 24 8 13 1018.8 1018.6 0.0
15/10:30am 21.9 19.4 11.0 50 6.0 ESE 15 24 8 13 1019.0 1018.8 0.0
15/10:00am 20.6 17.8 11.2 55 5.2 ESE 17 24 9 13 1019.5 1019.3 0.0
15/09:30am 19.7 17.0 11.7 60 4.4 ESE 17 24 9 13 1019.7 1019.5 0.0
15/09:00am 19.0 16.4 12.0 64 3.9 ESE 17 22 9 12 1019.9 1019.7 0.0
15/08:30am 18.1 15.2 12.3 69 3.2 SE 19 24 10 13 1019.8 1019.6 0.0
15/08:00am 17.4 15.7 12.5 73 2.7 SE 13 17 7 9 1019.8 1019.6 0.0
15/07:30am 15.8 15.4 12.9 83 1.6 ESE 7 9 4 5 1019.8 1019.6 0.0
15/07:00am 13.9 12.8 11.8 87 1.1 SE 9 13 5 7 1019.4 1019.2 0.0
15/06:30am 13.9 12.8 11.8 87 1.1 ESE 9 11 5 6 1019.0 1018.8 0.0
15/06:00am 12.8 11.6 11.5 92 0.7 ESE 9 13 5 7 1018.9 1018.7 0.0
15/05:30am 11.8 10.8 11.0 95 0.4 SE 7 11 4 6 1018.8 1018.6 0.0
15/05:00am 12.1 10.9 11.5 96 0.3 SSE 9 11 5 6 1018.6 1018.4 0.0
15/04:30am 11.9 11.2 11.4 97 0.3 SSE 6 7 3 4 1018.4 1018.2 0.0
15/04:00am 10.9 9.6 10.1 95 0.4 SSW 7 11 4 6 1018.4 1018.2 0.0
15/03:30am 11.4 9.9 10.5 94 0.5 S 9 9 5 5 1018.5 1018.3 0.0
15/03:00am 11.5 11.7 10.4 93 0.6 CALM 0 0 0 0 1018.2 1018.0 0.0
15/02:30am 12.1 10.8 11.2 94 0.5 SE 9 15 5 8 1018.2 1018.0 0.0
15/02:00am 11.4 9.7 10.0 91 0.7 S 9 11 5 6 1018.9 1018.7 0.0
15/01:30am 12.2 10.8 10.8 91 0.7 S 9 11 5 6 1019.0 1018.8 0.0
15/01:00am 11.7 9.4 10.3 91 0.7 S 13 13 7 7 1019.0 1018.8 0.0
15/12:30am 12.1 10.5 10.3 89 0.9 SSW 9 11 5 6 1019.1 1018.9 0.0
15/12:00am 12.8 11.3 10.5 86 1.2 S 9 11 5 6 1019.2 1019.0 0.0
 
Date/Time
CDT
Temp
°C
App
Temp
°C
Dew
Point
°C
Rel
Hum
%
Delta-T
°C
Wind Press
QNH
hPa
Press
MSL
hPa
Rain since
9am
mm
Dir  Spd
km/h
Gust
km/h
Spd
kts
Gust
kts
14/11:30pm 13.3 11.0 10.5 83 1.5 S 13 15 7 8 1019.2 1019.0 0.0
14/11:00pm 14.0 12.5 10.6 80 1.8 SSE 9 13 5 7 1019.3 1019.1 0.0
14/10:30pm 14.4 11.3 10.4 77 2.1 S 17 20 9 11 1019.1 1018.9 0.0
14/10:00pm 15.0 11.3 10.2 73 2.5 S 20 24 11 13 1019.0 1018.8 0.0
14/09:30pm 15.8 12.6 10.1 69 3.0 S 17 22 9 12 1019.0 1018.8 0.0
14/09:00pm 16.7 13.0 10.1 65 3.5 SSE 20 28 11 15 1018.9 1018.7 0.0
14/08:30pm 17.7 13.1 9.8 60 4.2 SSE 24 32 13 17 1018.6 1018.4 0.0
14/08:00pm 19.2 14.7 9.9 55 5.0 SSE 24 33 13 18 1018.0 1017.8 0.0
14/07:30pm 20.3 15.8 10.1 52 5.5 SSE 24 32 13 17 1017.6 1017.4 0.0
14/07:00pm 21.6 17.3 9.5 46 6.5 SSW 22 32 12 17 1017.4 1017.2 0.0
14/06:30pm 21.9 17.4 10.1 47 6.4 SW 24 35 13 19 1017.3 1017.1 0.0
14/06:00pm 21.9 16.2 9.8 46 6.5 SSW 30 37 16 20 1017.4 1017.2 0.0
14/05:30pm 22.4 17.5 9.9 45 6.8 SSW 26 35 14 19 1017.8 1017.6 0.0
14/05:00pm 23.0 18.2 10.4 45 6.9 SSW 26 39 14 21 1017.8 1017.6 0.0
14/04:30pm 23.2 18.5 10.6 45 7.0 SW 26 37 14 20 1017.7 1017.5 0.0
14/04:00pm 24.3 19.8 10.2 41 7.8 SW 24 33 13 18 1017.8 1017.6 0.0
14/03:30pm 23.1 18.3 10.2 44 7.1 SW 26 39 14 21 1018.0 1017.8 0.0
14/03:00pm 23.7 19.4 10.7 44 7.2 SW 24 37 13 20 1017.8 1017.6 0.0
14/02:30pm 22.8 18.8 10.3 45 6.9 SSW 22 33 12 18 1017.8 1017.6 0.0
14/02:00pm 23.1 19.6 10.9 46 6.8 SW 20 33 11 18 1017.7 1017.5 0.0
14/01:30pm 22.1 18.4 10.3 47 6.4 SSW 20 32 11 17 1017.8 1017.6 0.0
14/01:00pm 22.3 19.3 10.8 48 6.4 WSW 17 30 9 16 1017.7 1017.5 0.0
14/12:30pm 21.6 18.1 11.0 51 5.8 SW 20 32 11 17 1017.8 1017.6 0.0
14/12:00pm 21.1 17.9 10.0 49 6.0 S 17 32 9 17 1017.7 1017.5 0.0
14/11:30am 21.2 17.4 9.8 48 6.1 S 20 28 11 15 1017.6 1017.4 0.0
14/11:00am 19.4 15.8 10.4 56 4.9 SW 20 30 11 16 1017.4 1017.2 0.0
14/10:30am 18.8 15.4 11.1 61 4.2 SW 20 28 11 15 1017.4 1017.2 0.0
14/10:00am 18.6 14.7 10.7 60 4.3 SSW 22 30 12 16 1017.0 1016.8 0.0
14/09:30am 18.0 14.6 11.1 64 3.7 SW 20 30 11 16 1016.6 1016.4 0.0
14/09:00am 17.7 12.8 10.1 61 4.0 SW 26 35 14 19 1016.3 1016.1 0.0
14/08:30am 17.4 13.1 10.8 65 3.5 SW 24 30 13 16 1016.1 1015.9 0.0

Other Formats:

Comma delimited format used in spreadsheet applications
http://www.bom.gov.au/fwo/IDS60801/IDS60801.95663.axf

JavaScript Object Notation format (JSON) in row-major order
http://www.bom.gov.au/fwo/IDS60801/IDS60801.95663.json